Time;durP1;ratioP1;P1;durP2;ratioP2;P2;SDS_P1;SDS_P2;PMS_P1;PMS_P2;Temp;Humidity;BMP_temperature;BMP_pressure;BME280_temperature;BME280_humidity;BME280_pressure;Samples;Min_cycle;Max_cycle;Signal;HPM_P1;HPM_P2
2021/06/25 00:01:14;;;;;;;1.63;1.52;;;16.30;88.40;;;19.37;74.17;101877.50;5029023;27;98377;-71
2021/06/25 00:03:59;;;;;;;1.95;0.75;;;16.30;88.40;;;19.36;74.59;101876.69;5025699;28;96986;-72
2021/06/25 00:06:32;;;;;;;2.78;0.28;;;16.30;88.30;;;19.37;74.40;101878.31;5029100;28;97821;-71
2021/06/25 00:09:00;;;;;;;3.40;1.42;;;16.40;88.30;;;19.40;74.70;101872.19;5028167;27;96690;-71
2021/06/25 00:11:30;;;;;;;1.48;1.08;;;16.40;88.30;;;19.42;74.16;101877.28;5028766;27;97120;-72
2021/06/25 00:13:59;;;;;;;0.65;0.65;;;16.40;88.30;;;19.41;73.97;101883.84;5029173;27;96954;-71
2021/06/25 00:16:31;;;;;;;0.63;0.63;;;16.40;88.30;;;19.31;74.76;101884.25;5058947;27;97952;-72
2021/06/25 00:19:01;;;;;;;0.93;0.93;;;16.40;88.30;;;19.28;74.36;101880.28;5027199;28;96781;-71
2021/06/25 00:21:31;;;;;;;0.70;0.70;;;16.30;88.30;;;19.32;74.29;101885.84;5028150;28;96979;-71
2021/06/25 00:24:00;;;;;;;1.83;1.52;;;16.30;88.30;;;19.29;74.86;101875.66;5026355;27;97527;-71
2021/06/25 00:26:31;;;;;;;1.02;0.85;;;16.30;88.30;;;19.22;74.63;101869.94;5028025;27;97834;-72
2021/06/25 00:29:03;;;;;;;1.38;1.17;;;16.30;88.30;;;19.10;74.96;101864.41;5024731;28;97618;-72
2021/06/25 00:31:32;;;;;;;1.65;1.05;;;16.30;88.30;;;19.02;75.29;101865.28;5049353;27;96875;-72
2021/06/25 00:34:04;;;;;;;1.48;1.38;;;16.20;88.20;;;18.94;75.04;101858.75;5031864;27;97109;-72
2021/06/25 00:36:33;;;;;;;2.25;1.52;;;16.20;88.20;;;18.74;75.50;101857.94;5033464;27;97933;-71
2021/06/25 00:39:04;;;;;;;2.53;1.25;;;16.10;88.10;;;18.80;75.60;101854.69;5034126;27;97710;-72
2021/06/25 00:41:33;;;;;;;2.35;1.95;;;16.00;88.30;;;18.65;75.74;101859.91;5032779;28;97348;-71
2021/06/25 00:44:03;;;;;;;1.38;1.27;;;15.90;88.40;;;18.61;75.54;101857.03;5031006;27;98225;-72
2021/06/25 00:46:32;;;;;;;0.55;0.55;;;15.90;88.50;;;18.61;75.81;101856.25;5013845;28;97826;-72
2021/06/25 00:49:04;;;;;;;0.52;0.52;;;15.80;88.70;;;18.58;75.61;101860.41;5035357;28;97082;-71
2021/06/25 00:51:33;;;;;;;0.57;0.57;;;15.80;88.90;;;18.64;75.72;101859.13;5032224;28;97180;-71
2021/06/25 00:54:05;;;;;;;0.50;0.50;;;15.70;89.00;;;18.67;75.44;101863.09;5031799;27;97381;-71
2021/06/25 00:56:34;;;;;;;0.45;0.45;;;15.80;89.00;;;18.73;75.65;101859.88;5032374;27;97905;-71
2021/06/25 00:59:05;;;;;;;0.73;0.73;;;15.80;89.10;;;18.80;75.18;101851.22;5031805;28;96785;-72
2021/06/25 01:01:34;;;;;;;12.65;2.45;;;15.80;89.10;;;18.84;75.21;101855.63;5035491;27;96801;-71
2021/06/25 01:04:06;;;;;;;0.70;0.70;;;15.80;89.00;;;18.89;75.11;101847.28;5049523;27;96740;-72
2021/06/25 01:06:34;;;;;;;0.15;0.15;;;15.90;89.00;;;18.84;74.89;101849.41;5034365;27;98391;-71
2021/06/25 01:09:08;;;;;;;0.55;0.50;;;15.90;89.00;;;18.87;74.80;101844.09;5029518;28;97682;-71
2021/06/25 01:11:37;;;;;;;1.77;1.23;;;15.90;88.90;;;18.95;74.88;101838.63;5032473;28;96795;-71
2021/06/25 01:14:06;;;;;;;2.47;1.70;;;15.90;88.80;;;18.87;74.75;101841.38;5029771;28;97047;-71
2021/06/25 01:16:35;;;;;;;2.42;1.33;;;16.00;89.30;;;18.78;75.46;101850.75;5032648;28;96977;-71
2021/06/25 01:19:14;;;;;;;1.17;1.08;;;16.00;88.60;;;18.68;75.49;101849.19;5032685;27;97621;-71
2021/06/25 01:21:45;;;;;;;2.08;1.92;;;16.00;88.50;;;18.65;75.27;101852.56;5031501;28;96962;-71
2021/06/25 01:24:14;;;;;;;0.63;0.63;;;15.90;88.50;;;18.69;75.49;101856.22;5029767;28;96828;-71
2021/06/25 01:26:43;;;;;;;2.50;0.93;;;15.90;88.60;;;18.75;75.26;101851.38;5027834;28;97901;-71
2021/06/25 01:29:12;;;;;;;0.80;0.80;;;15.90;88.70;;;18.80;74.94;101857.41;5047503;27;97669;-71
2021/06/25 01:31:41;;;;;;;0.40;0.40;;;15.90;88.70;;;18.84;74.93;101846.69;5029292;27;96865;-71
2021/06/25 01:34:10;;;;;;;1.02;0.93;;;15.90;89.30;;;18.79;75.07;101836.03;5028389;27;96965;-71
2021/06/25 01:36:40;;;;;;;1.08;1.08;;;15.90;88.70;;;18.70;74.96;101844.22;5030948;27;96737;-71
2021/06/25 01:39:10;;;;;;;4.40;2.45;;;15.80;88.60;;;18.71;75.05;101843.09;5032709;28;98071;-71
2021/06/25 01:41:40;;;;;;;1.95;1.38;;;15.80;88.60;;;18.66;74.82;101843.31;5027699;27;98622;-71
2021/06/25 01:44:10;;;;;;;2.78;1.35;;;15.80;88.70;;;18.52;74.83;101842.72;5028695;28;96823;-71
2021/06/25 01:46:42;;;;;;;1.52;1.25;;;15.70;88.60;;;18.36;75.38;101846.31;5032401;27;97352;-71
2021/06/25 01:49:13;;;;;;;3.73;1.20;;;15.70;88.50;;;18.26;75.92;101844.75;5032376;28;97767;-71
2021/06/25 01:51:47;;;;;;;1.77;1.50;;;15.50;88.50;;;18.23;75.57;101839.19;5029315;27;97443;-71
2021/06/25 01:54:17;;;;;;;1.58;1.48;;;15.50;88.60;;;18.08;75.63;101840.50;5044238;27;96820;-71
2021/06/25 01:56:46;;;;;;;1.50;1.25;;;15.40;88.70;;;17.92;75.90;101835.94;5030839;27;97799;-71
2021/06/25 01:59:16;;;;;;;0.75;0.75;;;15.30;88.80;;;17.83;76.04;101837.84;5032074;28;98107;-71
2021/06/25 02:01:44;;;;;;;6.10;1.45;;;15.20;89.00;;;17.75;75.95;101831.38;5033970;27;96740;-71
2021/06/25 02:04:13;;;;;;;3.90;0.90;;;15.10;89.20;;;17.69;76.19;101829.13;5027779;28;96846;-71
2021/06/25 02:06:42;;;;;;;1.85;1.38;;;15.00;89.30;;;17.63;76.28;101835.84;5026409;28;97928;-71
2021/06/25 02:09:10;;;;;;;1.38;0.82;;;15.00;89.40;;;17.58;76.77;101836.81;5047544;27;98047;-71
2021/06/25 02:11:40;;;;;;;0.98;0.88;;;14.90;89.50;;;17.60;76.08;101828.38;5013700;28;96814;-71
2021/06/25 02:14:09;;;;;;;1.42;0.85;;;14.90;89.50;;;17.38;77.22;101832.03;5033059;28;96880;-71
2021/06/25 02:16:38;;;;;;;0.57;0.57;;;14.80;89.60;;;17.40;76.80;101832.50;5031498;28;97824;-71
2021/06/25 02:19:07;;;;;;;1.00;0.93;;;14.70;89.60;;;17.38;76.76;101825.84;5031156;27;100552;-71
2021/06/25 02:21:35;;;;;;;2.05;1.63;;;14.70;89.70;;;17.33;76.59;101826.78;5031577;27;96964;-71
2021/06/25 02:24:07;;;;;;;3.97;1.73;;;14.60;89.70;;;17.33;76.99;101829.50;5034181;27;96693;-71
2021/06/25 02:26:36;;;;;;;1.05;0.85;;;14.60;89.70;;;17.29;76.53;101825.81;5030226;27;98421;-71
2021/06/25 02:29:06;;;;;;;1.83;0.95;;;14.60;89.80;;;17.28;76.69;101828.84;5027765;28;96853;-71
2021/06/25 02:31:35;;;;;;;2.38;1.73;;;14.50;89.80;;;17.20;75.96;101826.91;5032975;28;97088;-71
2021/06/25 02:34:04;;;;;;;1.05;0.98;;;14.40;89.80;;;17.11;76.08;101823.41;5014546;27;96833;-71
2021/06/25 02:36:33;;;;;;;1.27;1.17;;;14.40;89.90;;;17.11;76.61;101828.03;5031354;27;96918;-71
2021/06/25 02:39:05;;;;;;;2.40;2.20;;;14.40;89.90;;;17.06;76.41;101830.91;5035882;27;97642;-71
2021/06/25 02:41:34;;;;;;;15.15;1.13;;;14.30;89.90;;;17.00;76.26;101826.75;5033433;27;96805;-71
2021/06/25 02:44:07;;;;;;;3.13;2.83;;;14.20;89.90;;;16.93;76.15;101829.94;5033472;27;96752;-71
2021/06/25 02:46:36;;;;;;;5.30;1.60;;;14.20;89.80;;;16.85;76.26;101819.91;5028851;27;97866;-72
2021/06/25 02:49:05;;;;;;;0.98;0.57;;;14.10;89.80;;;16.84;76.60;101822.94;5029616;27;97235;-71
2021/06/25 02:51:34;;;;;;;0.40;0.40;;;14.10;90.00;;;16.83;76.07;101819.41;5033216;28;97052;-71
2021/06/25 02:54:05;;;;;;;0.77;0.77;;;14.00;90.00;;;16.79;75.94;101828.47;5028815;27;97647;-71
2021/06/25 02:56:33;;;;;;;1.98;1.08;;;14.00;90.00;;;16.73;75.90;101827.03;5030606;28;97792;-71
2021/06/25 02:59:04;;;;;;;1.15;1.02;;;13.90;90.00;;;16.61;76.75;101827.66;5031849;28;96892;-71
2021/06/25 03:01:35;;;;;;;5.85;1.30;;;13.90;90.00;;;16.64;76.75;101823.53;5029928;27;97961;-71
2021/06/25 03:04:05;;;;;;;1.13;0.82;;;13.90;90.10;;;16.59;76.66;101815.56;5026100;28;97595;-71
2021/06/25 03:06:34;;;;;;;3.13;1.77;;;13.90;90.10;;;16.57;76.52;101809.66;5035169;27;97281;-71
2021/06/25 03:09:05;;;;;;;2.10;1.90;;;13.90;90.10;;;16.57;76.10;101806.97;5031982;28;96877;-71
2021/06/25 03:11:34;;;;;;;3.08;1.17;;;13.80;90.00;;;16.57;76.51;101806.97;5031447;28;97148;-71
2021/06/25 03:14:05;;;;;;;1.10;1.10;;;13.80;90.00;;;16.55;76.35;101809.19;5028429;27;96841;-71
2021/06/25 03:16:35;;;;;;;1.52;1.00;;;13.80;90.00;;;16.60;75.70;101806.31;5031502;27;97849;-71
2021/06/25 03:19:05;;;;;;;0.82;0.82;;;13.70;90.00;;;16.56;76.54;101814.28;5047869;27;97831;-71
2021/06/25 03:21:34;;;;;;;3.55;1.48;;;13.70;90.00;;;16.42;76.10;101812.78;5030860;28;96769;-71
2021/06/25 03:24:08;;;;;;;2.22;1.65;;;13.70;90.00;;;16.42;76.20;101808.19;5031478;28;96966;-71
2021/06/25 03:26:39;;;;;;;1.42;1.15;;;13.70;90.00;;;16.45;76.36;101812.16;5028438;28;98183;-71
2021/06/25 03:29:08;;;;;;;2.53;1.85;;;13.60;90.00;;;16.46;76.24;101819.16;5030567;27;97751;-71
2021/06/25 03:31:38;;;;;;;0.35;0.35;;;13.60;90.00;;;16.50;75.81;101809.31;5031763;28;98050;-71
2021/06/25 03:34:07;;;;;;;1.77;1.67;;;13.60;90.00;;;16.52;75.26;101813.31;5026709;27;97000;-71
2021/06/25 03:36:35;;;;;;;1.38;1.27;;;13.60;90.00;;;16.54;75.74;101810.31;5027862;28;97838;-71
2021/06/25 03:39:06;;;;;;;1.15;1.02;;;13.60;89.90;;;16.54;75.24;101804.88;5027095;28;98747;-71
2021/06/25 03:41:35;;;;;;;0.63;0.63;;;13.60;89.90;;;16.57;75.20;101807.75;5031627;28;96824;-71
2021/06/25 03:44:05;;;;;;;2.38;1.48;;;13.60;89.80;;;16.60;74.97;101809.81;5029585;28;96856;-71
2021/06/25 03:46:33;;;;;;;1.08;0.98;;;13.60;89.70;;;16.47;75.47;101804.53;5029293;27;98117;-71
2021/06/25 03:49:07;;;;;;;2.08;1.98;;;13.60;89.60;;;16.57;75.49;101805.03;5026233;28;97716;-71
2021/06/25 03:51:36;;;;;;;0.55;0.55;;;13.60;89.60;;;16.53;75.22;101808.72;5011842;28;97167;-71
2021/06/25 03:54:06;;;;;;;4.20;1.30;;;13.60;89.70;;;16.54;74.76;101813.00;5030839;27;96760;-71
2021/06/25 03:56:35;;;;;;;1.35;1.05;;;13.50;89.60;;;16.61;75.02;101810.63;5026190;28;96893;-71
2021/06/25 03:59:03;;;;;;;1.73;1.40;;;13.60;89.60;;;16.67;74.37;101807.47;5029986;27;98841;-71
2021/06/25 04:01:32;;;;;;;0.65;0.65;;;13.60;89.50;;;16.77;75.02;101800.94;5029618;27;96738;-71
2021/06/25 04:04:03;;;;;;;1.17;1.05;;;13.70;89.50;;;16.81;74.37;101788.34;5030934;27;96998;-71
2021/06/25 04:06:33;;;;;;;1.70;1.60;;;13.70;89.40;;;16.93;73.70;101789.31;5026921;28;98267;-71
2021/06/25 04:09:03;;;;;;;0.60;0.60;;;13.80;89.30;;;16.96;74.56;101788.69;5028770;27;97688;-71
2021/06/25 04:11:33;;;;;;;2.15;1.98;;;13.80;89.10;;;17.00;73.53;101783.44;5030276;28;96649;-71
2021/06/25 04:14:03;;;;;;;0.57;0.57;;;13.90;89.00;;;17.00;74.27;101786.94;5029864;28;96848;-71
2021/06/25 04:16:33;;;;;;;3.38;2.65;;;13.90;88.90;;;16.96;73.93;101783.25;5026926;28;98838;-71
2021/06/25 04:19:04;;;;;;;1.80;1.25;;;13.90;88.80;;;17.00;74.39;101783.44;5029505;27;98384;-71
2021/06/25 04:21:34;;;;;;;3.00;2.15;;;14.00;88.70;;;17.13;73.31;101787.91;5064366;27;96920;-71
2021/06/25 04:24:04;;;;;;;0.80;0.80;;;14.00;88.60;;;17.07;74.12;101778.31;5045579;27;96884;-71
2021/06/25 04:26:35;;;;;;;1.30;1.20;;;14.00;88.50;;;17.08;73.71;101786.16;5029055;28;97912;-71
2021/06/25 04:29:07;;;;;;;4.72;1.35;;;14.10;88.50;;;17.16;73.46;101784.56;5026671;28;98415;-71
2021/06/25 04:31:38;;;;;;;1.92;1.45;;;14.10;88.40;;;17.21;74.25;101787.88;5028536;27;96803;-71
2021/06/25 04:34:07;;;;;;;3.92;1.13;;;14.10;88.40;;;17.32;73.74;101784.53;5028813;27;96840;-71
2021/06/25 04:36:37;;;;;;;7.97;2.15;;;14.20;88.40;;;17.36;72.82;101785.50;5030352;28;96934;-70
2021/06/25 04:39:06;;;;;;;1.95;1.45;;;14.20;88.20;;;17.29;73.87;101779.75;5031061;27;97826;-71
2021/06/25 04:41:36;;;;;;;28.98;1.35;;;14.20;88.00;;;17.32;73.68;101781.81;5029504;27;96767;-70
2021/06/25 04:44:06;;;;;;;0.73;0.65;;;14.30;88.00;;;17.35;73.81;101783.91;5028847;28;96925;-70
2021/06/25 04:46:36;;;;;;;6.22;1.88;;;14.30;88.10;;;17.40;73.32;101783.75;5028191;27;98004;-70
2021/06/25 04:49:05;;;;;;;1.33;1.25;;;14.30;87.90;;;17.41;73.57;101779.13;5028758;27;97572;-70
2021/06/25 04:51:34;;;;;;;0.95;0.95;;;14.40;87.90;;;17.43;73.46;101772.28;5046751;27;96890;-71
2021/06/25 04:54:05;;;;;;;2.15;1.95;;;14.40;87.90;;;17.52;73.40;101772.25;5028806;28;96954;-71
2021/06/25 04:56:33;;;;;;;0.88;0.52;;;14.40;87.90;;;17.58;73.38;101770.97;5030179;27;96883;-71
2021/06/25 04:59:04;;;;;;;2.45;2.25;;;14.40;87.80;;;17.62;73.17;101774.63;5030759;28;98336;-72
2021/06/25 05:01:33;;;;;;;2.00;1.08;;;14.50;87.60;;;17.73;72.37;101773.97;5029481;28;97026;-71
2021/06/25 05:04:05;;;;;;;1.20;1.00;;;14.50;87.60;;;17.71;72.27;101775.38;5041685;27;97104;-71
2021/06/25 05:06:33;;;;;;;2.65;2.05;;;14.50;87.40;;;17.73;73.06;101775.88;5028480;27;97930;-71
2021/06/25 05:09:04;;;;;;;1.65;1.55;;;14.60;87.30;;;17.75;72.42;101779.84;5029128;27;96812;-71
2021/06/25 05:11:33;;;;;;;1.98;1.40;;;14.60;87.30;;;17.80;72.88;101776.97;5027137;28;96893;-71
2021/06/25 05:14:04;;;;;;;1.58;1.48;;;14.60;87.30;;;17.82;72.33;101777.44;5028280;28;97856;-71
2021/06/25 05:16:32;;;;;;;3.30;2.40;;;14.60;87.30;;;17.84;72.33;101772.47;5026822;27;98409;-71
2021/06/25 05:19:01;;;;;;;1.48;1.38;;;14.70;87.40;;;17.89;72.50;101771.50;5034449;27;97041;-71
2021/06/25 05:21:31;;;;;;;1.67;1.10;;;14.70;87.20;;;17.94;72.44;101768.63;5033327;28;97072;-71
2021/06/25 05:24:00;;;;;;;0.50;0.50;;;14.80;87.30;;;18.08;71.95;101769.19;5035041;27;96887;-71
2021/06/25 05:26:32;;;;;;;2.13;1.83;;;14.80;87.20;;;18.12;72.47;101770.91;5033357;27;97753;-71
2021/06/25 05:29:01;;;;;;;0.95;0.88;;;14.90;87.10;;;18.24;71.80;101772.94;5032652;27;96865;-71
2021/06/25 05:31:32;;;;;;;3.78;1.50;;;15.00;87.10;;;18.78;71.35;101763.84;5033674;28;97293;-71
2021/06/25 05:34:03;;;;;;;2.35;1.98;;;16.40;86.60;;;19.54;70.11;101780.25;5059520;27;96989;-72
2021/06/25 05:36:32;;;;;;;1.60;0.70;;;17.20;81.90;;;20.17;69.63;101778.91;5028659;28;96724;-72
2021/06/25 05:39:00;;;;;;;2.83;2.38;;;17.60;81.30;;;20.94;68.15;101769.28;5034069;27;97144;-71
2021/06/25 05:41:33;;;;;;;4.57;2.08;;;18.00;81.30;;;21.49;67.84;101768.47;5031842;28;96787;-72
2021/06/25 05:44:04;;;;;;;2.60;1.90;;;19.00;81.00;;;23.44;64.07;101766.78;5035329;27;96843;-72
2021/06/25 05:46:33;;;;;;;1.58;0.95;;;19.50;80.20;;;24.85;60.59;101769.47;5033128;27;96879;-72
2021/06/25 05:49:03;;;;;;;15.27;1.35;;;20.00;79.70;;;25.53;60.57;101752.63;5033960;27;96786;-71
2021/06/25 05:51:32;;;;;;;1.50;1.02;;;21.70;78.20;;;28.43;53.75;101758.19;5034018;27;96963;-72
2021/06/25 05:54:01;;;;;;;5.38;2.33;;;24.00;74.80;;;30.25;50.67;101749.66;5033976;27;96941;-72
2021/06/25 05:56:33;;;;;;;13.38;2.85;;;25.50;70.90;;;31.26;49.86;101761.53;5046302;27;97151;-72
2021/06/25 05:59:03;;;;;;;2.10;1.63;;;26.20;69.70;;;31.02;52.40;101754.31;5015306;28;97664;-72
2021/06/25 06:01:32;;;;;;;1.17;1.05;;;28.10;67.90;;;32.08;51.96;101749.53;5033943;28;96981;-71
2021/06/25 06:04:01;;;;;;;5.78;2.05;;;30.10;64.70;;;32.44;53.08;101765.13;5031759;27;97012;-70
2021/06/25 06:06:32;;;;;;;2.25;1.90;;;32.00;62.10;;;34.33;50.32;101742.13;5027962;28;96981;-70
2021/06/25 06:09:03;;;;;;;2.47;1.60;;;33.60;59.60;;;37.94;43.92;101745.88;5030502;28;97855;-70
2021/06/25 06:11:33;;;;;;;3.90;2.22;;;35.10;58.20;;;40.17;40.61;101730.81;5030203;28;96679;-70
2021/06/25 06:14:03;;;;;;;3.40;1.83;;;36.30;57.20;;;41.62;39.27;101723.09;5029597;28;96913;-71
2021/06/25 06:16:33;;;;;;;2.78;1.13;;;37.40;56.60;;;42.90;38.65;101726.88;5028627;28;97195;-71
2021/06/25 06:19:04;;;;;;;5.07;1.98;;;38.40;56.30;;;43.82;37.97;101723.09;5045210;27;97930;-71
2021/06/25 06:32:45;;;;;;;7.05;2.28;;;41.80;55.40;;;47.62;36.49;101721.22;5028295;27;98074;-71
2021/06/25 06:35:14;;;;;;;3.00;2.15;;;42.40;55.60;;;48.26;35.95;101720.13;5030932;27;96991;-71
2021/06/25 06:37:48;;;;;;;2.22;2.00;;;43.00;55.10;;;48.63;34.85;101695.22;5026230;28;97986;-72
2021/06/25 06:40:19;;;;;;;8.75;2.00;;;43.40;54.00;;;48.98;35.16;101595.97;5033029;28;97599;-71
2021/06/25 06:42:50;;;;;;;1.90;1.53;;;43.70;54.70;;;49.62;34.68;101587.88;5010681;28;97050;-71
2021/06/25 06:45:19;;;;;;;2.45;1.73;;;44.10;54.70;;;50.20;34.35;101583.41;5029081;27;96921;-71
2021/06/25 06:47:48;;;;;;;1.77;1.63;;;44.60;54.70;;;50.62;34.16;101593.44;5030961;27;97938;-72
2021/06/25 06:50:17;;;;;;;11.35;3.33;;;45.00;54.70;;;50.87;33.97;101571.72;5031379;27;98087;-72
2021/06/25 06:52:50;;;;;;;9.50;3.17;;;45.20;54.50;;;50.87;34.14;101617.44;5028475;27;96644;-72
2021/06/25 06:55:22;;;;;;;4.38;2.50;;;45.20;53.80;;;50.89;34.14;101683.31;5030537;27;96961;-71
2021/06/25 06:57:52;;;;;;;3.08;2.35;;;45.20;54.60;;;47.35;39.67;101705.28;5029675;27;97932;-71
2021/06/25 07:00:22;;;;;;;2.60;2.15;;;43.90;55.00;;;45.35;43.01;101691.41;5031264;27;97076;-71
2021/06/25 07:02:53;;;;;;;6.68;3.05;;;42.40;57.00;;;43.44;45.60;101695.44;5029424;28;97470;-71
2021/06/25 07:05:22;;;;;;;2.55;2.35;;;40.80;58.20;;;42.24;46.85;101686.75;5061881;27;96866;-71
2021/06/25 07:07:50;;;;;;;3.70;2.42;;;39.50;60.00;;;40.77;48.62;101692.63;5029271;27;97873;-71
2021/06/25 07:10:19;;;;;;;4.22;2.38;;;38.20;60.30;;;39.89;49.63;101687.34;5032304;27;96885;-71
2021/06/25 07:12:48;;;;;;;3.47;2.53;;;37.10;61.70;;;40.15;48.41;101666.72;5027851;27;96867;-71
2021/06/25 07:15:18;;;;;;;1.33;1.23;;;36.60;62.80;;;41.64;44.96;101695.22;5031624;27;96719;-71
2021/06/25 07:17:47;;;;;;;1.65;1.55;;;36.60;61.90;;;39.99;47.58;101702.88;5029158;27;97949;-71
2021/06/25 07:20:16;;;;;;;1.63;1.30;;;36.10;62.10;;;41.08;44.71;101690.06;5041262;27;100913;-69
2021/06/25 07:22:45;;;;;;;1.92;1.25;;;36.00;62.50;;;41.81;43.17;101716.72;5014728;28;96941;-69
2021/06/25 07:25:15;;;;;;;3.75;3.05;;;36.20;62.30;;;41.30;44.10;101721.38;5028623;28;96900;-69
2021/06/25 07:27:44;;;;;;;1.42;1.30;;;36.00;62.60;;;40.49;45.96;101719.47;5031353;27;98187;-69
2021/06/25 07:30:15;;;;;;;5.72;1.88;;;35.70;63.10;;;39.91;46.41;101716.50;5028618;28;96882;-70
2021/06/25 07:32:45;;;;;;;4.70;1.97;;;35.30;63.30;;;39.15;48.07;101728.75;5030508;27;96693;-70
2021/06/25 07:35:14;;;;;;;1.33;1.23;;;34.80;63.70;;;38.38;49.47;101726.75;5030801;27;96973;-69
2021/06/25 07:37:43;;;;;;;2.38;1.52;;;34.30;64.80;;;38.36;48.80;101735.63;5030025;27;97850;-70
2021/06/25 07:40:13;;;;;;;2.03;1.38;;;33.90;64.60;;;38.79;46.96;101729.66;5027791;27;97459;-70
2021/06/25 07:42:42;;;;;;;1.65;0.90;;;33.70;64.60;;;38.45;47.17;101734.84;5031552;27;96915;-70
2021/06/25 07:45:12;;;;;;;0.73;0.70;;;33.60;64.70;;;38.02;48.45;101738.72;5030605;27;97034;-70
2021/06/25 07:47:45;;;;;;;2.75;1.95;;;33.40;65.00;;;36.68;51.27;101726.97;5030745;27;96964;-69
2021/06/25 07:50:17;;;;;;;2.03;1.58;;;32.80;65.60;;;35.96;52.43;101729.13;5026310;28;97726;-70
2021/06/25 07:52:46;;;;;;;1.43;1.33;;;32.20;66.90;;;35.46;52.26;101736.81;5028788;27;96899;-69
2021/06/25 07:55:16;;;;;;;1.15;1.05;;;31.70;66.30;;;34.86;53.60;101735.88;5026270;28;97011;-69
2021/06/25 07:57:45;;;;;;;1.52;1.10;;;31.20;67.20;;;34.95;52.71;101732.41;5023186;28;96959;-69
2021/06/25 08:00:15;;;;;;;2.15;1.00;;;30.70;67.90;;;34.62;53.22;101734.56;5007707;28;97769;-69
2021/06/25 08:02:45;;;;;;;1.23;1.10;;;30.40;68.40;;;34.09;53.90;101734.44;5031147;27;96767;-69
2021/06/25 08:05:15;;;;;;;1.42;1.25;;;30.00;68.60;;;33.69;54.16;101735.09;5031865;27;97111;-69
2021/06/25 08:07:44;;;;;;;0.95;0.95;;;29.60;69.20;;;34.18;52.56;101737.41;5025214;27;97872;-70
2021/06/25 08:10:16;;;;;;;0.90;0.87;;;29.40;69.70;;;34.33;52.03;101731.00;5012895;28;97108;-70
2021/06/25 08:12:44;;;;;;;1.55;0.90;;;29.30;69.40;;;34.85;50.96;101725.94;5012026;28;96789;-70
2021/06/25 08:15:14;;;;;;;2.38;1.23;;;29.30;69.50;;;36.78;45.76;101734.97;5029281;27;98660;-70
2021/06/25 08:17:44;;;;;;;2.83;1.08;;;29.60;69.20;;;38.92;41.49;101727.44;5026852;28;97928;-69
2021/06/25 08:20:14;;;;;;;1.88;1.20;;;30.30;68.30;;;39.50;41.17;101727.81;5030953;27;97852;-70
2021/06/25 08:22:43;;;;;;;1.85;1.02;;;31.10;67.10;;;40.04;40.88;101721.88;5025806;27;96906;-70
2021/06/25 08:25:13;;;;;;;0.88;0.85;;;31.60;66.60;;;40.66;39.64;101719.75;5024832;27;97431;-70
2021/06/25 08:27:41;;;;;;;2.47;1.52;;;32.10;65.70;;;41.19;39.40;101721.16;5028307;28;97452;-70
2021/06/25 08:30:13;;;;;;;1.25;0.98;;;32.50;65.40;;;40.71;40.24;101721.88;5028128;27;97724;-70
2021/06/25 08:32:43;;;;;;;2.33;1.23;;;32.70;65.40;;;41.17;40.84;101720.13;5029792;27;97401;-70
2021/06/25 08:35:13;;;;;;;1.95;1.38;;;33.00;65.60;;;38.75;46.79;101717.84;5043277;27;96918;-69
2021/06/25 08:37:42;;;;;;;1.58;1.45;;;33.00;66.20;;;36.81;51.13;101728.47;5025834;28;96873;-69
2021/06/25 08:40:12;;;;;;;15.13;1.27;;;32.60;67.00;;;35.62;53.55;101723.53;5026782;27;97248;-69
2021/06/25 08:42:41;;;;;;;2.03;1.42;;;31.90;68.10;;;34.88;54.80;101738.19;5026387;27;96900;-70
2021/06/25 08:45:14;;;;;;;3.70;1.48;;;31.40;68.60;;;34.10;56.14;101730.44;5042919;27;97070;-69
2021/06/25 08:47:46;;;;;;;1.00;0.82;;;30.80;69.00;;;33.63;56.29;101729.22;5025371;27;98408;-69
2021/06/25 08:50:22;;;;;;;1.75;0.68;;;30.20;69.60;;;33.44;56.56;101723.75;5027337;27;97726;-69
2021/06/25 08:52:54;;;;;;;1.58;0.88;;;29.90;69.80;;;33.32;56.04;101719.66;5030949;28;97295;-69
2021/06/25 08:55:23;;;;;;;6.32;1.23;;;29.60;70.10;;;34.35;52.88;101717.44;5028632;27;97752;-70
2021/06/25 08:57:52;;;;;;;0.88;0.88;;;29.50;70.40;;;34.56;52.71;101719.63;5029985;27;97473;-70
2021/06/25 09:00:22;;;;;;;0.88;0.88;;;29.50;70.60;;;35.38;51.08;101713.94;5029147;27;97645;-70
2021/06/25 09:02:51;;;;;;;1.02;0.63;;;29.50;70.70;;;37.01;47.36;101714.16;5029690;27;97048;-70
2021/06/25 09:05:29;;;;;;;0.47;0.40;;;29.80;70.20;;;38.39;44.86;101709.47;5025214;27;97227;-70
2021/06/25 09:08:00;;;;;;;19.25;1.05;;;30.30;70.00;;;38.99;44.53;101704.66;5028109;27;97952;-71
2021/06/25 09:10:37;;;;;;;1.92;1.42;;;30.80;70.60;;;38.39;45.82;101706.66;5024270;28;98772;-72
2021/06/25 09:13:09;;;;;;;4.35;2.15;;;31.20;69.70;;;37.12;49.80;101704.09;5029697;27;97345;-71
2021/06/25 09:15:42;;;;;;;1.40;1.15;;;31.20;69.90;;;36.25;51.05;101699.03;5027537;27;98576;-70
2021/06/25 09:18:13;;;;;;;1.70;1.00;;;31.00;69.20;;;35.26;52.98;101700.00;5026849;28;97893;-70
2021/06/25 09:20:47;;;;;;;3.13;1.20;;;30.70;69.70;;;35.30;52.15;101695.13;5027310;28;96991;-70
2021/06/25 09:23:25;;;;;;;0.80;0.80;;;30.20;70.00;;;35.02;52.81;101684.84;5031555;27;97315;-70
2021/06/25 09:25:58;;;;;;;1.98;1.25;;;29.90;70.70;;;35.09;52.25;101698.53;5026507;28;96942;-70
2021/06/25 09:28:36;;;;;;;1.13;0.70;;;29.60;70.70;;;35.36;51.16;101691.31;5057875;27;99453;-69
2021/06/25 09:31:13;;;;;;;1.23;1.02;;;29.40;71.40;;;37.06;47.44;101689.16;5029022;27;96901;-69
2021/06/25 09:33:48;;;;;;;0.65;0.60;;;29.40;71.80;;;37.44;47.14;101680.44;5029302;27;97258;-69
2021/06/25 09:36:24;;;;;;;0.55;0.47;;;29.70;71.90;;;38.94;44.34;101677.28;5008604;28;97189;-69
2021/06/25 09:39:05;;;;;;;0.65;0.60;;;30.00;72.20;;;40.28;42.57;101672.06;5025356;27;96772;-70
2021/06/25 09:41:37;;;;;;;1.08;0.70;;;30.60;72.40;;;40.57;43.04;101670.03;5029409;27;97908;-70
2021/06/25 09:44:10;;;;;;;2.20;1.83;;;31.10;73.20;;;40.13;44.33;101668.44;5045806;27;97751;-70
2021/06/25 09:46:42;;;;;;;1.42;0.88;;;31.50;71.90;;;39.18;46.44;101669.72;5032170;27;97109;-70
2021/06/25 09:49:14;;;;;;;1.55;1.38;;;31.60;72.10;;;37.16;51.87;101673.19;5032761;27;98456;-69
2021/06/25 09:51:55;;;;;;;;;;;31.50;72.50;;;36.43;53.09;101674.03;5034174;28;97894;-69
2021/06/25 09:54:26;;;;;;;1.95;1.80;;;31.40;70.90;;;36.62;52.17;101678.50;5030377;28;96800;-71
2021/06/25 09:57:07;;;;;;;0.77;0.77;;;31.10;71.80;;;36.27;53.35;101677.00;5028774;27;97162;-70
2021/06/25 10:02:30;;;;;;;1.83;1.23;;;31.00;71.50;;;35.62;53.78;101678.91;5030170;27;96799;-69
2021/06/25 10:05:08;;;;;;;1.27;1.15;;;30.70;72.00;;;35.95;53.19;101669.78;5031389;28;96862;-69
2021/06/25 10:07:38;;;;;;;1.60;0.90;;;30.60;72.20;;;35.85;53.60;101670.13;5032267;27;96851;-70
2021/06/25 10:10:10;;;;;;;1.23;1.13;;;30.50;72.80;;;36.16;53.14;101660.63;5032944;27;97920;-70
2021/06/25 10:12:44;;;;;;;1.63;1.00;;;30.50;72.90;;;36.02;54.00;101663.94;5031696;27;97027;-69
2021/06/25 10:15:14;;;;;;;4.57;1.83;;;30.50;73.70;;;36.08;54.92;101653.78;5030842;28;96760;-69
2021/06/25 10:17:43;;;;;;;1.58;1.48;;;30.70;74.30;;;36.10;55.01;101658.91;5028716;27;96878;-69
2021/06/25 10:20:14;;;;;;;3.30;2.00;;;30.80;74.10;;;35.80;56.36;101659.56;5028387;27;96812;-69
2021/06/25 10:22:51;;;;;;;1.92;1.65;;;30.90;74.30;;;35.78;56.55;101666.81;5029353;28;96959;-69
2021/06/25 10:25:24;;;;;;;4.15;1.35;;;30.90;74.30;;;35.88;56.68;101658.06;5032930;27;96824;-69
2021/06/25 10:27:56;;;;;;;1.65;1.40;;;31.00;74.30;;;35.71;57.33;101653.88;5033927;27;96805;-69
2021/06/25 10:30:31;;;;;;;2.33;1.40;;;31.10;74.80;;;35.86;57.54;101643.78;5032279;28;97145;-69
2021/06/25 10:33:04;;;;;;;20.85;1.52;;;31.20;75.30;;;36.11;57.80;101644.47;5028972;28;96744;-69
2021/06/25 10:35:34;;;;;;;2.72;1.40;;;31.40;75.60;;;36.12;58.03;101636.91;5030128;27;96783;-69
2021/06/25 10:38:07;;;;;;;0.95;0.80;;;31.50;75.30;;;36.19;58.04;101639.44;5030953;27;96911;-69
2021/06/25 10:40:36;;;;;;;;;;;31.60;74.80;;;36.01;58.04;101634.47;5030656;27;96795;-69